sensor_id;sensor_type;location;lat;lon;timestamp;P1;durP1;ratioP1;P2;durP2;ratioP2
47433;SDS011;33184;48.774;8.918;2022-11-23T00:01:56;11.13;;;1.10;;
47433;SDS011;33184;48.774;8.918;2022-11-23T00:07:16;1.57;;;1.00;;
47433;SDS011;33184;48.774;8.918;2022-11-23T00:12:37;3.20;;;0.97;;
47433;SDS011;33184;48.774;8.918;2022-11-23T00:17:57;4.03;;;1.10;;
47433;SDS011;33184;48.774;8.918;2022-11-23T00:23:19;5.23;;;1.17;;
47433;SDS011;33184;48.774;8.918;2022-11-23T00:28:40;5.90;;;1.27;;
47433;SDS011;33184;48.774;8.918;2022-11-23T00:34:02;6.60;;;0.93;;
47433;SDS011;33184;48.774;8.918;2022-11-23T00:39:22;4.70;;;2.03;;
47433;SDS011;33184;48.774;8.918;2022-11-23T00:44:43;7.37;;;1.20;;
47433;SDS011;33184;48.774;8.918;2022-11-23T00:50:04;3.30;;;1.07;;
47433;SDS011;33184;48.774;8.918;2022-11-23T00:55:24;3.23;;;1.20;;
47433;SDS011;33184;48.774;8.918;2022-11-23T01:00:45;5.50;;;1.30;;
47433;SDS011;33184;48.774;8.918;2022-11-23T01:06:10;3.47;;;1.50;;
47433;SDS011;33184;48.774;8.918;2022-11-23T01:11:41;5.85;;;1.65;;
47433;SDS011;33184;48.774;8.918;2022-11-23T01:17:03;4.53;;;0.90;;
47433;SDS011;33184;48.774;8.918;2022-11-23T01:22:27;3.07;;;0.93;;
47433;SDS011;33184;48.774;8.918;2022-11-23T01:27:47;1.53;;;0.80;;
47433;SDS011;33184;48.774;8.918;2022-11-23T01:33:08;3.17;;;0.80;;
47433;SDS011;33184;48.774;8.918;2022-11-23T01:38:28;2.13;;;0.80;;
47433;SDS011;33184;48.774;8.918;2022-11-23T01:43:50;2.10;;;0.73;;
47433;SDS011;33184;48.774;8.918;2022-11-23T01:49:12;4.30;;;0.80;;
47433;SDS011;33184;48.774;8.918;2022-11-23T01:54:33;2.50;;;0.53;;
47433;SDS011;33184;48.774;8.918;2022-11-23T01:59:57;1.40;;;0.70;;
47433;SDS011;33184;48.774;8.918;2022-11-23T02:05:18;4.13;;;0.80;;
47433;SDS011;33184;48.774;8.918;2022-11-23T02:10:42;2.97;;;0.70;;
47433;SDS011;33184;48.774;8.918;2022-11-23T02:16:04;1.43;;;0.97;;
47433;SDS011;33184;48.774;8.918;2022-11-23T02:21:25;2.67;;;0.80;;
47433;SDS011;33184;48.774;8.918;2022-11-23T02:26:46;5.07;;;0.70;;
47433;SDS011;33184;48.774;8.918;2022-11-23T02:32:06;4.63;;;0.80;;
47433;SDS011;33184;48.774;8.918;2022-11-23T02:37:27;3.50;;;0.87;;
47433;SDS011;33184;48.774;8.918;2022-11-23T02:42:47;5.27;;;0.90;;
47433;SDS011;33184;48.774;8.918;2022-11-23T02:48:09;4.00;;;0.60;;
47433;SDS011;33184;48.774;8.918;2022-11-23T02:53:32;4.53;;;0.70;;
47433;SDS011;33184;48.774;8.918;2022-11-23T02:58:52;5.47;;;0.70;;
47433;SDS011;33184;48.774;8.918;2022-11-23T03:04:13;4.93;;;0.90;;
47433;SDS011;33184;48.774;8.918;2022-11-23T03:09:34;3.23;;;0.70;;
47433;SDS011;33184;48.774;8.918;2022-11-23T03:14:55;2.40;;;1.07;;
47433;SDS011;33184;48.774;8.918;2022-11-23T03:20:17;4.83;;;0.67;;
47433;SDS011;33184;48.774;8.918;2022-11-23T03:25:42;2.03;;;0.70;;
47433;SDS011;33184;48.774;8.918;2022-11-23T03:31:03;5.33;;;1.00;;
47433;SDS011;33184;48.774;8.918;2022-11-23T03:36:25;4.13;;;0.90;;
47433;SDS011;33184;48.774;8.918;2022-11-23T03:41:45;2.07;;;1.07;;
47433;SDS011;33184;48.774;8.918;2022-11-23T03:47:06;6.50;;;1.30;;
47433;SDS011;33184;48.774;8.918;2022-11-23T03:52:29;5.60;;;1.00;;
47433;SDS011;33184;48.774;8.918;2022-11-23T03:57:49;3.50;;;0.83;;
47433;SDS011;33184;48.774;8.918;2022-11-23T04:03:10;1.57;;;0.80;;
47433;SDS011;33184;48.774;8.918;2022-11-23T04:08:49;1.77;;;0.93;;
47433;SDS011;33184;48.774;8.918;2022-11-23T04:14:19;2.03;;;0.90;;
47433;SDS011;33184;48.774;8.918;2022-11-23T04:19:41;3.83;;;0.90;;
47433;SDS011;33184;48.774;8.918;2022-11-23T04:25:02;5.83;;;0.90;;
47433;SDS011;33184;48.774;8.918;2022-11-23T04:30:23;6.20;;;1.00;;
47433;SDS011;33184;48.774;8.918;2022-11-23T04:35:46;3.53;;;0.93;;
47433;SDS011;33184;48.774;8.918;2022-11-23T04:41:08;2.80;;;1.93;;
47433;SDS011;33184;48.774;8.918;2022-11-23T04:46:29;1.70;;;0.67;;
47433;SDS011;33184;48.774;8.918;2022-11-23T04:51:52;3.77;;;0.87;;
47433;SDS011;33184;48.774;8.918;2022-11-23T04:57:16;5.87;;;1.33;;
47433;SDS011;33184;48.774;8.918;2022-11-23T05:02:38;3.30;;;1.10;;
47433;SDS011;33184;48.774;8.918;2022-11-23T05:08:19;7.53;;;3.60;;
47433;SDS011;33184;48.774;8.918;2022-11-23T05:13:47;5.67;;;1.00;;
47433;SDS011;33184;48.774;8.918;2022-11-23T05:19:08;4.87;;;1.10;;
47433;SDS011;33184;48.774;8.918;2022-11-23T05:24:29;3.40;;;1.00;;
47433;SDS011;33184;48.774;8.918;2022-11-23T05:30:00;2.67;;;1.43;;
47433;SDS011;33184;48.774;8.918;2022-11-23T05:35:20;3.87;;;1.33;;
47433;SDS011;33184;48.774;8.918;2022-11-23T05:40:41;3.90;;;1.07;;
47433;SDS011;33184;48.774;8.918;2022-11-23T05:46:02;3.87;;;1.10;;
47433;SDS011;33184;48.774;8.918;2022-11-23T05:51:27;4.80;;;1.83;;
47433;SDS011;33184;48.774;8.918;2022-11-23T05:56:48;4.97;;;1.77;;
47433;SDS011;33184;48.774;8.918;2022-11-23T06:02:12;5.13;;;1.67;;
47433;SDS011;33184;48.774;8.918;2022-11-23T06:07:33;5.67;;;1.77;;
47433;SDS011;33184;48.774;8.918;2022-11-23T06:13:02;3.50;;;2.03;;
47433;SDS011;33184;48.774;8.918;2022-11-23T06:18:24;7.57;;;1.90;;
47433;SDS011;33184;48.774;8.918;2022-11-23T06:23:45;6.53;;;1.67;;
47433;SDS011;33184;48.774;8.918;2022-11-23T06:29:08;4.77;;;1.70;;
47433;SDS011;33184;48.774;8.918;2022-11-23T06:34:29;5.80;;;1.67;;
47433;SDS011;33184;48.774;8.918;2022-11-23T06:39:50;6.20;;;2.07;;
47433;SDS011;33184;48.774;8.918;2022-11-23T06:45:10;6.60;;;2.53;;
47433;SDS011;33184;48.774;8.918;2022-11-23T06:50:31;7.67;;;2.10;;
47433;SDS011;33184;48.774;8.918;2022-11-23T06:55:56;5.63;;;1.57;;
47433;SDS011;33184;48.774;8.918;2022-11-23T07:01:18;4.10;;;1.90;;
47433;SDS011;33184;48.774;8.918;2022-11-23T07:06:53;4.18;;;2.08;;
47433;SDS011;33184;48.774;8.918;2022-11-23T07:12:23;3.27;;;1.97;;
47433;SDS011;33184;48.774;8.918;2022-11-23T07:17:43;9.97;;;2.13;;
47433;SDS011;33184;48.774;8.918;2022-11-23T07:23:06;6.60;;;1.77;;
47433;SDS011;33184;48.774;8.918;2022-11-23T07:28:29;10.75;;;2.85;;
47433;SDS011;33184;48.774;8.918;2022-11-23T07:33:50;8.93;;;2.57;;
47433;SDS011;33184;48.774;8.918;2022-11-23T07:39:12;6.10;;;1.93;;
47433;SDS011;33184;48.774;8.918;2022-11-23T07:44:33;9.17;;;3.27;;
47433;SDS011;33184;48.774;8.918;2022-11-23T07:49:56;7.33;;;3.10;;
47433;SDS011;33184;48.774;8.918;2022-11-23T07:55:16;7.27;;;1.87;;
47433;SDS011;33184;48.774;8.918;2022-11-23T08:00:37;8.00;;;2.33;;
47433;SDS011;33184;48.774;8.918;2022-11-23T08:05:57;9.93;;;1.73;;
47433;SDS011;33184;48.774;8.918;2022-11-23T08:11:18;8.20;;;1.70;;
47433;SDS011;33184;48.774;8.918;2022-11-23T08:16:39;7.30;;;1.80;;
47433;SDS011;33184;48.774;8.918;2022-11-23T08:22:00;8.07;;;1.70;;
47433;SDS011;33184;48.774;8.918;2022-11-23T08:27:21;8.13;;;2.73;;
47433;SDS011;33184;48.774;8.918;2022-11-23T08:32:41;10.83;;;2.83;;
47433;SDS011;33184;48.774;8.918;2022-11-23T08:38:02;6.20;;;0.90;;
47433;SDS011;33184;48.774;8.918;2022-11-23T08:43:23;4.83;;;0.97;;
47433;SDS011;33184;48.774;8.918;2022-11-23T08:48:44;2.70;;;0.83;;
47433;SDS011;33184;48.774;8.918;2022-11-23T08:54:05;3.73;;;0.73;;
47433;SDS011;33184;48.774;8.918;2022-11-23T08:59:25;4.43;;;1.47;;
47433;SDS011;33184;48.774;8.918;2022-11-23T09:04:46;4.90;;;0.70;;
47433;SDS011;33184;48.774;8.918;2022-11-23T09:10:07;2.63;;;0.60;;
47433;SDS011;33184;48.774;8.918;2022-11-23T09:15:28;4.83;;;1.00;;
47433;SDS011;33184;48.774;8.918;2022-11-23T09:20:48;5.50;;;1.10;;
47433;SDS011;33184;48.774;8.918;2022-11-23T09:26:09;6.77;;;1.10;;
47433;SDS011;33184;48.774;8.918;2022-11-23T09:31:29;6.00;;;0.90;;
47433;SDS011;33184;48.774;8.918;2022-11-23T09:36:50;5.10;;;0.93;;
47433;SDS011;33184;48.774;8.918;2022-11-23T09:53:33;4.37;;;0.90;;
47433;SDS011;33184;48.774;8.918;2022-11-23T09:59:00;5.53;;;2.33;;
47433;SDS011;33184;48.774;8.918;2022-11-23T10:04:24;1.30;;;0.60;;
47433;SDS011;33184;48.774;8.918;2022-11-23T10:10:05;4.30;;;1.77;;
47433;SDS011;33184;48.774;8.918;2022-11-23T10:15:52;3.77;;;1.00;;
47433;SDS011;33184;48.774;8.918;2022-11-23T10:27:41;3.60;;;0.90;;
47433;SDS011;33184;48.774;8.918;2022-11-23T10:33:06;3.80;;;0.90;;
47433;SDS011;33184;48.774;8.918;2022-11-23T10:38:32;2.57;;;0.80;;
47433;SDS011;33184;48.774;8.918;2022-11-23T10:49:24;4.50;;;1.30;;
47433;SDS011;33184;48.774;8.918;2022-11-23T11:10:57;6.17;;;0.93;;
47433;SDS011;33184;48.774;8.918;2022-11-23T11:21:50;3.10;;;0.97;;
47433;SDS011;33184;48.774;8.918;2022-11-23T11:27:11;4.27;;;0.87;;
47433;SDS011;33184;48.774;8.918;2022-11-23T11:49:12;4.60;;;0.83;;
47433;SDS011;33184;48.774;8.918;2022-11-23T11:54:43;3.50;;;1.10;;
47433;SDS011;33184;48.774;8.918;2022-11-23T12:05:46;4.63;;;1.00;;
47433;SDS011;33184;48.774;8.918;2022-11-23T12:11:09;2.60;;;1.20;;
47433;SDS011;33184;48.774;8.918;2022-11-23T12:23:03;1.73;;;0.80;;
47433;SDS011;33184;48.774;8.918;2022-11-23T12:45:26;2.50;;;0.77;;
47433;SDS011;33184;48.774;8.918;2022-11-23T13:14:00;4.55;;;1.70;;
47433;SDS011;33184;48.774;8.918;2022-11-23T13:25:01;3.00;;;1.27;;
47433;SDS011;33184;48.774;8.918;2022-11-23T13:30:27;4.10;;;1.02;;
47433;SDS011;33184;48.774;8.918;2022-11-23T13:35:55;2.25;;;0.80;;
47433;SDS011;33184;48.774;8.918;2022-11-23T13:47:03;2.25;;;0.50;;
47433;SDS011;33184;48.774;8.918;2022-11-23T13:52:27;4.32;;;0.70;;
47433;SDS011;33184;48.774;8.918;2022-11-23T14:03:44;1.77;;;0.50;;
47433;SDS011;33184;48.774;8.918;2022-11-23T14:09:14;2.22;;;0.60;;
47433;SDS011;33184;48.774;8.918;2022-11-23T14:25:48;2.30;;;0.67;;
47433;SDS011;33184;48.774;8.918;2022-11-23T14:31:19;1.07;;;0.60;;
47433;SDS011;33184;48.774;8.918;2022-11-23T14:42:44;5.57;;;0.70;;
47433;SDS011;33184;48.774;8.918;2022-11-23T14:48:21;14.67;;;0.77;;
47433;SDS011;33184;48.774;8.918;2022-11-23T14:59:22;0.93;;;0.30;;
47433;SDS011;33184;48.774;8.918;2022-11-23T15:10:25;0.93;;;0.40;;
47433;SDS011;33184;48.774;8.918;2022-11-23T15:15:51;4.93;;;0.50;;
47433;SDS011;33184;48.774;8.918;2022-11-23T15:21:21;1.43;;;0.40;;
47433;SDS011;33184;48.774;8.918;2022-11-23T15:26:44;4.40;;;0.40;;
47433;SDS011;33184;48.774;8.918;2022-11-23T15:32:19;3.90;;;0.40;;
47433;SDS011;33184;48.774;8.918;2022-11-23T15:37:45;5.87;;;0.50;;
47433;SDS011;33184;48.774;8.918;2022-11-23T15:43:10;2.03;;;0.50;;
47433;SDS011;33184;48.774;8.918;2022-11-23T15:48:33;1.87;;;0.43;;
47433;SDS011;33184;48.774;8.918;2022-11-23T15:53:56;2.23;;;0.50;;
47433;SDS011;33184;48.774;8.918;2022-11-23T16:04:39;3.33;;;0.50;;
47433;SDS011;33184;48.774;8.918;2022-11-23T16:20:58;1.00;;;0.53;;
47433;SDS011;33184;48.774;8.918;2022-11-23T16:26:30;2.37;;;0.70;;
47433;SDS011;33184;48.774;8.918;2022-11-23T16:31:53;2.53;;;0.50;;
47433;SDS011;33184;48.774;8.918;2022-11-23T16:37:15;3.80;;;0.73;;
47433;SDS011;33184;48.774;8.918;2022-11-23T16:42:36;1.17;;;0.47;;
47433;SDS011;33184;48.774;8.918;2022-11-23T16:48:00;1.93;;;1.23;;
47433;SDS011;33184;48.774;8.918;2022-11-23T16:53:22;1.33;;;0.83;;
47433;SDS011;33184;48.774;8.918;2022-11-23T16:58:45;2.93;;;0.90;;
47433;SDS011;33184;48.774;8.918;2022-11-23T17:04:07;1.20;;;0.60;;
47433;SDS011;33184;48.774;8.918;2022-11-23T17:09:28;2.07;;;0.80;;
47433;SDS011;33184;48.774;8.918;2022-11-23T17:14:49;4.70;;;0.93;;
47433;SDS011;33184;48.774;8.918;2022-11-23T17:20:13;3.33;;;0.77;;
47433;SDS011;33184;48.774;8.918;2022-11-23T17:25:34;0.90;;;0.70;;
47433;SDS011;33184;48.774;8.918;2022-11-23T17:30:56;0.90;;;0.50;;
47433;SDS011;33184;48.774;8.918;2022-11-23T17:36:16;2.33;;;0.60;;
47433;SDS011;33184;48.774;8.918;2022-11-23T17:41:37;2.87;;;0.60;;
47433;SDS011;33184;48.774;8.918;2022-11-23T17:46:59;1.93;;;0.70;;
47433;SDS011;33184;48.774;8.918;2022-11-23T17:52:20;1.40;;;0.67;;
47433;SDS011;33184;48.774;8.918;2022-11-23T17:57:41;1.80;;;0.70;;
47433;SDS011;33184;48.774;8.918;2022-11-23T18:03:02;4.30;;;0.80;;
47433;SDS011;33184;48.774;8.918;2022-11-23T18:08:23;1.57;;;0.70;;
47433;SDS011;33184;48.774;8.918;2022-11-23T18:13:43;4.03;;;1.00;;
47433;SDS011;33184;48.774;8.918;2022-11-23T18:19:06;1.73;;;1.00;;
47433;SDS011;33184;48.774;8.918;2022-11-23T18:24:26;3.13;;;0.90;;
47433;SDS011;33184;48.774;8.918;2022-11-23T18:29:47;3.27;;;1.37;;
47433;SDS011;33184;48.774;8.918;2022-11-23T18:35:08;3.00;;;0.70;;
47433;SDS011;33184;48.774;8.918;2022-11-23T18:40:29;2.00;;;1.00;;
47433;SDS011;33184;48.774;8.918;2022-11-23T18:45:49;2.50;;;1.03;;
47433;SDS011;33184;48.774;8.918;2022-11-23T18:51:10;2.97;;;0.70;;
47433;SDS011;33184;48.774;8.918;2022-11-23T18:56:32;2.80;;;0.90;;
47433;SDS011;33184;48.774;8.918;2022-11-23T19:01:52;1.80;;;0.80;;
47433;SDS011;33184;48.774;8.918;2022-11-23T19:07:13;1.23;;;0.97;;
47433;SDS011;33184;48.774;8.918;2022-11-23T19:12:33;3.60;;;0.93;;
47433;SDS011;33184;48.774;8.918;2022-11-23T19:17:54;1.10;;;0.80;;
47433;SDS011;33184;48.774;8.918;2022-11-23T19:23:14;4.07;;;1.30;;
47433;SDS011;33184;48.774;8.918;2022-11-23T19:28:35;2.90;;;1.10;;
47433;SDS011;33184;48.774;8.918;2022-11-23T19:33:56;1.13;;;1.00;;
47433;SDS011;33184;48.774;8.918;2022-11-23T19:39:24;1.87;;;1.20;;
47433;SDS011;33184;48.774;8.918;2022-11-23T19:44:45;4.70;;;1.43;;
47433;SDS011;33184;48.774;8.918;2022-11-23T19:50:06;3.87;;;2.03;;
47433;SDS011;33184;48.774;8.918;2022-11-23T19:55:27;1.80;;;1.00;;
47433;SDS011;33184;48.774;8.918;2022-11-23T20:00:48;2.63;;;1.50;;
47433;SDS011;33184;48.774;8.918;2022-11-23T20:06:13;4.43;;;2.00;;
47433;SDS011;33184;48.774;8.918;2022-11-23T20:16:57;3.93;;;0.60;;
47433;SDS011;33184;48.774;8.918;2022-11-23T20:22:18;4.73;;;1.17;;
47433;SDS011;33184;48.774;8.918;2022-11-23T20:27:38;3.97;;;0.93;;
47433;SDS011;33184;48.774;8.918;2022-11-23T20:33:00;6.00;;;0.93;;
47433;SDS011;33184;48.774;8.918;2022-11-23T20:38:20;8.60;;;1.60;;
47433;SDS011;33184;48.774;8.918;2022-11-23T20:43:41;14.40;;;2.17;;
47433;SDS011;33184;48.774;8.918;2022-11-23T20:49:03;8.03;;;1.33;;
47433;SDS011;33184;48.774;8.918;2022-11-23T20:54:23;14.60;;;2.40;;
47433;SDS011;33184;48.774;8.918;2022-11-23T20:59:44;8.53;;;1.13;;
47433;SDS011;33184;48.774;8.918;2022-11-23T21:05:05;6.33;;;2.13;;
47433;SDS011;33184;48.774;8.918;2022-11-23T21:10:25;3.27;;;0.87;;
47433;SDS011;33184;48.774;8.918;2022-11-23T21:16:05;7.80;;;1.10;;
47433;SDS011;33184;48.774;8.918;2022-11-23T21:21:26;11.50;;;1.70;;
47433;SDS011;33184;48.774;8.918;2022-11-23T21:26:47;6.97;;;2.33;;
47433;SDS011;33184;48.774;8.918;2022-11-23T21:32:08;5.20;;;1.10;;
47433;SDS011;33184;48.774;8.918;2022-11-23T21:37:28;11.73;;;2.33;;
47433;SDS011;33184;48.774;8.918;2022-11-23T21:42:50;9.13;;;1.03;;
47433;SDS011;33184;48.774;8.918;2022-11-23T21:48:11;16.80;;;1.33;;
47433;SDS011;33184;48.774;8.918;2022-11-23T21:53:31;10.20;;;1.13;;
47433;SDS011;33184;48.774;8.918;2022-11-23T21:58:53;7.37;;;1.30;;
47433;SDS011;33184;48.774;8.918;2022-11-23T22:04:14;12.47;;;2.27;;
47433;SDS011;33184;48.774;8.918;2022-11-23T22:09:36;8.57;;;2.30;;
47433;SDS011;33184;48.774;8.918;2022-11-23T22:14:57;11.00;;;3.80;;
47433;SDS011;33184;48.774;8.918;2022-11-23T22:20:17;9.73;;;1.40;;
47433;SDS011;33184;48.774;8.918;2022-11-23T22:25:38;8.80;;;1.13;;
47433;SDS011;33184;48.774;8.918;2022-11-23T22:30:58;8.37;;;2.03;;
47433;SDS011;33184;48.774;8.918;2022-11-23T22:36:22;9.73;;;2.17;;
47433;SDS011;33184;48.774;8.918;2022-11-23T22:41:43;10.97;;;1.37;;
47433;SDS011;33184;48.774;8.918;2022-11-23T22:47:03;10.87;;;1.10;;
47433;SDS011;33184;48.774;8.918;2022-11-23T22:52:24;9.93;;;1.33;;
47433;SDS011;33184;48.774;8.918;2022-11-23T22:57:44;7.17;;;1.00;;
47433;SDS011;33184;48.774;8.918;2022-11-23T23:03:05;9.30;;;1.37;;
47433;SDS011;33184;48.774;8.918;2022-11-23T23:08:26;9.40;;;1.00;;
47433;SDS011;33184;48.774;8.918;2022-11-23T23:13:47;12.63;;;1.13;;
47433;SDS011;33184;48.774;8.918;2022-11-23T23:19:08;8.67;;;1.70;;
47433;SDS011;33184;48.774;8.918;2022-11-23T23:24:30;7.10;;;1.20;;
47433;SDS011;33184;48.774;8.918;2022-11-23T23:29:51;9.87;;;1.40;;
47433;SDS011;33184;48.774;8.918;2022-11-23T23:35:12;7.80;;;1.13;;
47433;SDS011;33184;48.774;8.918;2022-11-23T23:40:32;8.97;;;0.97;;
47433;SDS011;33184;48.774;8.918;2022-11-23T23:45:54;5.07;;;0.77;;
47433;SDS011;33184;48.774;8.918;2022-11-23T23:51:18;9.23;;;0.90;;
47433;SDS011;33184;48.774;8.918;2022-11-23T23:56:41;7.73;;;0.80;;
